METAR Data
IDs: Format: Raw Decoded Include TAF

Data at: 1132 UTC 28 Sep 2021

PKMR 281051Z 09007KT 15SM FEW015 SCT050 BKN120 OVC300 29/25 A2982 RMK SLP100 T02910245